CheckWX is a tool to help pilots better visualize weather data.  It is not intended as a substitute for an official pre-flight weather briefing.

22:38:56 UTC

06C METAR
Schaumburg Regional Airport
Chicago/Schaumburg, Illinois, USA
Current

24 mins ago

K06C 062215Z AUTO 05003KT 10SM CLR 02/M06 A3031 RMK AO2 T00241063
Observed
Dec-6 @ 22:15 UTC
Wind
  • 050° at 3 KTS
Visibility
10 SM
Flight Rules
VFR
Cloud Levels
  • Clear skies
Temperature
C / 36°F
Dewpoint
-6°C / 21°F
Humidity
56%
Altimeter
30.31" Hg
Pressure
1026.42 hPa
Previous

44 mins ago

K06C 062155Z AUTO 00000KT 10SM CLR 03/M06 A3031 RMK AO2 T00301064
Observed
Dec-6 @ 21:55 UTC
Visibility
10 SM
Flight Rules
VFR
Cloud Levels
  • Clear skies
Temperature
C / 37°F
Dewpoint
-6°C / 21°F
Humidity
52%
Altimeter
30.31" Hg
Pressure
1026.42 hPa
Previous

1 hour ago

K06C 062135Z AUTO 33003KT 10SM CLR 03/M06 A3030 RMK AO2 T00311061
Observed
Dec-6 @ 21:35 UTC
Wind
  • 330° at 3 KTS
Visibility
10 SM
Flight Rules
VFR
Cloud Levels
  • Clear skies
Temperature
C / 37°F
Dewpoint
-6°C / 21°F
Humidity
52%
Altimeter
30.3" Hg
Pressure
1026.12 hPa